KOCF/OCF METAR and TAF weather

Enter ICAO airport designator
Station Type Date Time Source
KOCF METAR 2024/04/18 06:51 UTC NOAA

KOCF 180651Z AUTO 00000KT 10SM CLR 18/17 A3010 RMK AO2 SLP191 T01780167 $


Station Type Date Time Source
KOCF Decoded METAR 2024/04/18 06:51 UTC NOAA

Ocala, Ocala International Airport-Jim Taylor Field, FL, United States (KOCF) 29-10N 082-13W
Apr 18, 2024 - 02:51 AM EDT / 2024.04.18 0651 UTC
Wind: Calm:0
Visibility: 10 mile(s):0
Sky conditions: clear
Temperature: 64.0 F (17.8 C)
Dew Point: 62.1 F (16.7 C)
Relative Humidity: 93%
Pressure (altimeter): 30.1 in. Hg (1019 hPa)
ob: KOCF 180651Z AUTO 00000KT 10SM CLR 18/17 A3010 RMK AO2 SLP191 T01780167
cycle: 7

Station Type Date Time Source
KOCF TAF UTC NOAA

Error!

Example: see airport list